createdAt,value
2018-07-27T00:02:08.485Z,96.60
2018-07-27T00:04:36.671Z,97.00
2018-07-27T00:07:04.853Z,97.20
2018-07-27T00:09:32.974Z,97.60
2018-07-27T00:12:01.101Z,97.80
2018-07-27T00:14:29.218Z,98.20
2018-07-27T00:16:57.333Z,98.80
2018-07-27T00:19:25.456Z,99.10
2018-07-27T00:21:53.609Z,99.50
2018-07-27T00:24:21.725Z,99.90
2018-07-27T00:26:49.850Z,99.90
2018-07-27T00:29:17.992Z,99.90
2018-07-27T00:31:46.109Z,99.90
2018-07-27T00:34:14.270Z,99.90
2018-07-27T00:36:42.438Z,99.90
2018-07-27T00:39:11.059Z,99.90
2018-07-27T00:41:39.199Z,99.90
2018-07-27T00:44:07.497Z,99.90
2018-07-27T00:46:35.635Z,99.90
2018-07-27T00:49:03.749Z,99.90
2018-07-27T00:51:31.865Z,99.90
2018-07-27T00:54:00.006Z,99.90
2018-07-27T00:56:28.249Z,99.90
2018-07-27T00:58:56.422Z,99.90
2018-07-27T01:01:24.577Z,99.90
2018-07-27T01:03:52.878Z,99.90
2018-07-27T01:06:21.025Z,99.90
2018-07-27T01:08:49.170Z,99.90
2018-07-27T01:11:17.306Z,99.90
2018-07-27T01:13:45.433Z,99.90
2018-07-27T01:16:13.567Z,99.90
2018-07-27T01:18:41.710Z,99.90
2018-07-27T01:21:09.893Z,99.90
2018-07-27T01:23:38.049Z,99.90
2018-07-27T01:26:06.177Z,99.90
2018-07-27T01:28:34.311Z,99.90
2018-07-27T01:31:02.632Z,99.90
2018-07-27T01:33:30.778Z,99.90
2018-07-27T01:35:58.912Z,99.90
2018-07-27T01:38:27.029Z,99.90
2018-07-27T01:40:55.161Z,99.90
2018-07-27T01:43:23.314Z,99.90
2018-07-27T01:45:51.456Z,99.90
2018-07-27T01:48:19.602Z,99.90
2018-07-27T01:50:47.757Z,99.90
2018-07-27T01:53:15.932Z,99.90
2018-07-27T01:55:44.101Z,99.90
2018-07-27T01:58:12.238Z,99.90
2018-07-27T02:00:40.423Z,99.90
2018-07-27T02:03:08.755Z,99.90
2018-07-27T02:05:36.929Z,99.90
2018-07-27T02:08:05.049Z,99.90
2018-07-27T02:10:33.199Z,99.90
2018-07-27T02:13:01.362Z,99.90
2018-07-27T02:15:29.444Z,99.90
2018-07-27T02:17:58.407Z,99.90
2018-07-27T02:20:26.557Z,99.90
2018-07-27T02:22:54.661Z,99.90
2018-07-27T02:25:22.761Z,99.90
2018-07-27T02:27:50.881Z,99.90
2018-07-27T02:30:18.997Z,99.90
2018-07-27T02:32:47.103Z,99.90
2018-07-27T02:35:15.209Z,99.90
2018-07-27T02:37:43.321Z,99.90
2018-07-27T02:40:11.430Z,99.90
2018-07-27T02:42:39.565Z,99.90
2018-07-27T02:45:07.688Z,99.90
2018-07-27T02:47:35.809Z,99.90
2018-07-27T02:50:04.217Z,99.90
2018-07-27T02:52:32.326Z,99.90
2018-07-27T02:55:00.460Z,99.90
2018-07-27T02:57:28.571Z,99.90
2018-07-27T02:59:56.714Z,99.90
2018-07-27T03:02:24.829Z,99.90
2018-07-27T03:04:52.946Z,99.90
2018-07-27T03:07:21.077Z,99.90
2018-07-27T03:09:49.231Z,99.90
2018-07-27T03:12:17.278Z,99.90
2018-07-27T03:14:45.406Z,99.90
2018-07-27T03:17:13.534Z,99.90
2018-07-27T03:19:41.658Z,99.90
2018-07-27T03:22:09.876Z,99.90
2018-07-27T03:24:38.005Z,99.90
2018-07-27T03:27:06.125Z,99.90
2018-07-27T03:29:34.261Z,99.90
2018-07-27T03:32:02.378Z,99.90
2018-07-27T03:34:30.494Z,99.90
2018-07-27T03:36:58.604Z,99.90
2018-07-27T03:39:26.714Z,99.90
2018-07-27T03:41:54.816Z,99.90
2018-07-27T03:44:22.930Z,99.90
2018-07-27T03:46:51.045Z,99.90
2018-07-27T03:49:19.146Z,99.90
2018-07-27T03:51:47.249Z,99.90
2018-07-27T03:54:15.386Z,99.90
2018-07-27T03:56:43.499Z,99.90
2018-07-27T03:59:11.627Z,99.90
2018-07-27T04:01:39.767Z,99.90
2018-07-27T04:04:07.593Z,99.90
2018-07-27T04:06:35.723Z,99.90
2018-07-27T04:09:05.677Z,99.90
2018-07-27T04:11:33.809Z,99.90
2018-07-27T04:14:01.949Z,99.90
2018-07-27T04:16:30.166Z,99.90
2018-07-27T04:18:58.312Z,99.90
2018-07-27T04:21:26.446Z,99.90
2018-07-27T04:23:54.577Z,99.90
2018-07-27T04:26:22.854Z,99.90
2018-07-27T04:28:50.947Z,99.90
2018-07-27T04:31:19.134Z,99.90
2018-07-27T04:33:47.293Z,99.90
2018-07-27T04:36:15.483Z,99.90
2018-07-27T04:38:43.674Z,99.90
2018-07-27T04:41:11.922Z,99.90
2018-07-27T04:43:40.111Z,99.90
2018-07-27T04:46:08.395Z,99.90
2018-07-27T04:48:36.562Z,99.90
2018-07-27T04:51:04.675Z,99.90
2018-07-27T04:53:32.793Z,99.90
2018-07-27T04:56:00.945Z,99.90
2018-07-27T04:58:29.082Z,99.90
2018-07-27T05:00:57.188Z,99.90
2018-07-27T05:03:25.301Z,99.90
2018-07-27T05:05:53.458Z,99.90
2018-07-27T05:08:21.613Z,99.90
2018-07-27T05:10:50.291Z,99.90
2018-07-27T05:13:19.264Z,99.90
2018-07-27T05:15:48.277Z,99.90
2018-07-27T05:18:17.025Z,99.90
2018-07-27T05:20:45.220Z,99.90
2018-07-27T05:23:13.453Z,99.90
2018-07-27T05:25:41.600Z,99.90
2018-07-27T05:28:11.021Z,99.90
2018-07-27T05:30:39.246Z,99.90
2018-07-27T05:33:07.366Z,99.90
2018-07-27T05:35:35.498Z,99.90
2018-07-27T05:38:04.525Z,99.90
2018-07-27T05:40:32.831Z,99.90
2018-07-27T05:43:00.965Z,99.90
2018-07-27T05:45:29.106Z,99.90
2018-07-27T05:47:57.198Z,99.90
2018-07-27T05:50:25.319Z,99.90
2018-07-27T05:52:53.430Z,99.90
2018-07-27T05:55:21.570Z,99.90
2018-07-27T05:57:49.673Z,99.90
2018-07-27T06:00:17.774Z,99.90
2018-07-27T06:02:45.872Z,99.90
2018-07-27T06:05:13.965Z,99.90
2018-07-27T06:07:42.085Z,99.90
2018-07-27T06:10:10.201Z,99.90
2018-07-27T06:12:38.333Z,99.90
2018-07-27T06:15:06.761Z,99.90
2018-07-27T06:17:34.881Z,99.90
2018-07-27T06:20:03.168Z,99.90
2018-07-27T06:22:31.268Z,99.90
2018-07-27T06:24:59.372Z,99.90
2018-07-27T06:27:27.475Z,99.90
2018-07-27T06:29:55.595Z,99.90
2018-07-27T06:32:23.667Z,99.90
2018-07-27T06:34:51.792Z,99.90
2018-07-27T06:37:19.957Z,99.90
2018-07-27T06:39:48.057Z,99.90
2018-07-27T06:42:16.194Z,99.90
2018-07-27T06:44:44.359Z,99.90
2018-07-27T06:47:12.533Z,99.90
2018-07-27T06:49:40.646Z,99.90
2018-07-27T06:52:08.772Z,99.90
2018-07-27T06:54:36.908Z,99.90
2018-07-27T06:57:05.052Z,99.90
2018-07-27T06:59:33.153Z,99.90
2018-07-27T07:02:01.347Z,99.80
2018-07-27T07:04:29.462Z,99.90
2018-07-27T07:06:57.618Z,99.70
2018-07-27T07:09:25.717Z,99.80
2018-07-27T07:11:53.834Z,99.30
2018-07-27T07:14:22.160Z,99.40
2018-07-27T07:16:50.345Z,98.80
2018-07-27T07:19:18.530Z,98.90
2018-07-27T07:21:46.709Z,98.50
2018-07-27T07:24:14.848Z,98.50
2018-07-27T07:26:43.028Z,98.30
2018-07-27T07:29:11.167Z,98.10
2018-07-27T07:31:39.594Z,97.80
2018-07-27T07:34:07.721Z,97.10
2018-07-27T07:36:35.848Z,96.40
2018-07-27T07:39:05.885Z,96.30
2018-07-27T07:41:33.977Z,95.70
2018-07-27T07:44:02.097Z,95.80
2018-07-27T07:46:30.231Z,94.90
2018-07-27T07:49:02.603Z,95.20
2018-07-27T07:51:30.720Z,94.80
2018-07-27T07:53:58.879Z,95.00
2018-07-27T07:56:26.986Z,94.30
2018-07-27T07:58:55.132Z,93.80
2018-07-27T08:01:23.246Z,92.80
2018-07-27T08:03:51.369Z,93.30
2018-07-27T08:06:19.518Z,92.90
2018-07-27T08:08:47.741Z,92.40
2018-07-27T08:11:15.918Z,91.50
2018-07-27T08:13:44.095Z,91.80
2018-07-27T08:16:12.231Z,90.50
2018-07-27T08:18:40.380Z,89.30
2018-07-27T08:21:08.490Z,89.50
2018-07-27T08:23:36.616Z,88.50
2018-07-27T08:26:44.697Z,88.10
2018-07-27T08:29:13.936Z,86.00
2018-07-27T08:31:44.961Z,84.00
2018-07-27T08:34:13.926Z,83.50
2018-07-27T08:36:42.171Z,83.30
2018-07-27T08:39:11.566Z,83.00
2018-07-27T08:41:40.110Z,82.40
2018-07-27T08:44:09.268Z,82.10
2018-07-27T08:46:37.625Z,82.50
2018-07-27T08:49:05.741Z,81.30
2018-07-27T08:51:34.028Z,79.30
2018-07-27T08:54:02.177Z,80.50
2018-07-27T08:56:30.289Z,80.30
2018-07-27T08:58:58.421Z,80.70
2018-07-27T09:01:26.566Z,80.80
2018-07-27T09:03:54.802Z,80.20
2018-07-27T09:06:22.898Z,83.30
2018-07-27T09:08:51.379Z,81.10
2018-07-27T09:11:19.713Z,79.60
2018-07-27T09:13:48.293Z,80.00
2018-07-27T09:16:16.538Z,78.80
2018-07-27T09:18:45.102Z,79.20
2018-07-27T09:21:13.432Z,74.50
2018-07-27T09:23:41.711Z,72.90
2018-07-27T09:26:09.818Z,71.80
2018-07-27T09:28:38.141Z,72.80
2018-07-27T09:31:06.276Z,71.90
2018-07-27T09:33:34.557Z,72.50
2018-07-27T09:36:02.971Z,72.00
2018-07-27T09:38:31.141Z,71.70
2018-07-27T09:40:59.310Z,64.30
2018-07-27T09:43:27.488Z,64.40
2018-07-27T09:45:55.617Z,67.10
2018-07-27T09:48:23.732Z,68.00
2018-07-27T09:50:51.869Z,69.50
2018-07-27T09:53:19.989Z,71.10
2018-07-27T09:55:48.117Z,68.40
2018-07-27T09:58:16.253Z,68.50
2018-07-27T10:00:49.806Z,67.10
2018-07-27T10:03:17.921Z,68.60
2018-07-27T10:05:46.112Z,66.10
2018-07-27T10:08:14.206Z,66.20
2018-07-27T10:10:42.349Z,64.10
2018-07-27T10:13:10.490Z,65.10
2018-07-27T10:15:38.635Z,65.00
2018-07-27T10:18:06.760Z,64.50
2018-07-27T10:20:34.918Z,65.80
2018-07-27T10:23:03.178Z,64.70
2018-07-27T10:25:31.782Z,63.90
2018-07-27T10:27:59.972Z,61.20
2018-07-27T10:30:28.289Z,62.50
2018-07-27T10:32:56.444Z,62.00
2018-07-27T10:35:24.553Z,63.70
2018-07-27T10:37:52.774Z,60.80
2018-07-27T10:40:20.921Z,58.60
2018-07-27T10:42:49.049Z,59.10
2018-07-27T10:45:17.248Z,57.40
2018-07-27T10:47:45.420Z,59.50
2018-07-27T10:50:13.561Z,58.70
2018-07-27T10:52:41.718Z,59.10
2018-07-27T10:55:10.019Z,60.40
2018-07-27T10:57:38.549Z,62.80
2018-07-27T11:00:10.257Z,60.10
2018-07-27T11:02:38.566Z,62.60
2018-07-27T11:05:06.709Z,62.70
2018-07-27T11:07:34.857Z,61.80
2018-07-27T11:10:03.073Z,60.00
2018-07-27T11:12:31.261Z,61.80
2018-07-27T11:14:59.447Z,60.70
2018-07-27T11:17:27.831Z,61.50
2018-07-27T11:19:55.952Z,63.50
2018-07-27T11:22:24.105Z,61.60
2018-07-27T11:24:52.229Z,61.20
2018-07-27T11:27:20.354Z,59.20
2018-07-27T11:29:48.482Z,60.00
2018-07-27T11:32:16.633Z,59.60
2018-07-27T11:34:44.805Z,61.20
2018-07-27T11:37:12.984Z,59.10
2018-07-27T11:39:41.064Z,60.10
2018-07-27T11:42:09.247Z,57.00
2018-07-27T11:44:37.321Z,56.40
2018-07-27T11:47:05.747Z,58.10
2018-07-27T11:49:33.884Z,56.20
2018-07-27T11:52:02.077Z,58.40
2018-07-27T11:54:30.289Z,61.70
2018-07-27T11:56:58.465Z,62.10
2018-07-27T11:59:26.675Z,60.50
2018-07-27T12:01:55.038Z,59.50
2018-07-27T12:04:23.178Z,57.90
2018-07-27T12:06:51.305Z,59.10
2018-07-27T12:09:19.450Z,58.80
2018-07-27T12:11:47.598Z,56.80
2018-07-27T12:14:15.837Z,57.50
2018-07-27T12:16:43.893Z,56.40
2018-07-27T12:19:12.026Z,54.70
2018-07-27T12:21:40.337Z,53.10
2018-07-27T12:24:08.414Z,56.90
2018-07-27T12:26:36.582Z,57.00
2018-07-27T12:29:04.889Z,56.40
2018-07-27T12:31:33.090Z,56.80
2018-07-27T12:34:01.211Z,53.80
2018-07-27T12:36:29.448Z,52.10
2018-07-27T12:38:57.661Z,53.40
2018-07-27T12:41:25.876Z,53.20
2018-07-27T12:43:54.026Z,56.50
2018-07-27T12:46:22.180Z,52.30
2018-07-27T12:48:50.520Z,53.30
2018-07-27T12:51:18.723Z,55.00
2018-07-27T12:53:46.913Z,54.50
2018-07-27T12:56:15.053Z,55.20
2018-07-27T12:58:43.196Z,52.50
2018-07-27T13:01:11.304Z,51.00
2018-07-27T13:03:39.458Z,50.40
2018-07-27T13:06:07.630Z,55.00
2018-07-27T13:08:35.767Z,52.30
2018-07-27T13:11:03.892Z,52.40
2018-07-27T13:13:32.017Z,50.30
2018-07-27T13:16:00.256Z,52.70
2018-07-27T13:18:28.481Z,50.20
2018-07-27T13:20:57.198Z,51.70
2018-07-27T13:23:25.841Z,52.00
2018-07-27T13:26:28.720Z,51.80
2018-07-27T13:28:42.101Z,50.60
2018-07-27T13:31:11.023Z,51.70
2018-07-27T13:33:43.762Z,52.20
2018-07-27T13:36:11.873Z,50.70
2018-07-27T13:38:40.458Z,48.80
2018-07-27T13:41:08.597Z,51.50
2018-07-27T13:43:36.741Z,49.50
2018-07-27T13:46:04.917Z,48.70
2018-07-27T13:48:33.053Z,49.20
2018-07-27T13:51:01.220Z,51.50
2018-07-27T13:53:29.481Z,51.50
2018-07-27T13:55:57.780Z,53.10
2018-07-27T13:58:25.942Z,53.60
2018-07-27T14:00:54.087Z,50.30
2018-07-27T14:03:22.221Z,52.20
2018-07-27T14:05:50.353Z,49.90
2018-07-27T14:08:18.457Z,50.40
2018-07-27T14:10:46.566Z,50.30
2018-07-27T14:13:14.694Z,50.40
2018-07-27T14:15:42.797Z,50.60
2018-07-27T14:18:10.944Z,50.40
2018-07-27T14:20:39.735Z,53.00
2018-07-27T14:23:07.948Z,49.60
2018-07-27T14:25:36.038Z,48.40
2018-07-27T14:28:04.269Z,48.80
2018-07-27T14:30:32.588Z,48.50
2018-07-27T14:33:00.851Z,50.20
2018-07-27T14:35:29.125Z,48.10
2018-07-27T14:37:57.268Z,47.90
2018-07-27T14:40:25.427Z,48.90
2018-07-27T14:42:53.539Z,49.50
2018-07-27T14:45:21.703Z,48.70
2018-07-27T14:47:49.797Z,49.30
2018-07-27T14:50:17.961Z,48.50
2018-07-27T14:52:46.148Z,47.50
2018-07-27T14:55:14.234Z,48.20
2018-07-27T14:57:42.350Z,48.20
2018-07-27T15:00:10.494Z,46.90
2018-07-27T15:02:38.685Z,46.80
2018-07-27T15:05:06.894Z,47.70
2018-07-27T15:07:34.990Z,48.80
2018-07-27T15:10:03.231Z,49.30
2018-07-27T15:12:31.417Z,50.00
2018-07-27T15:14:59.626Z,49.60
2018-07-27T15:17:27.785Z,49.30
2018-07-27T15:19:56.292Z,49.70
2018-07-27T15:22:24.432Z,49.90
2018-07-27T15:24:52.559Z,49.70
2018-07-27T15:27:20.684Z,48.60
2018-07-27T15:29:48.832Z,49.10
2018-07-27T15:32:16.965Z,48.40
2018-07-27T15:34:45.112Z,50.10
2018-07-27T15:37:13.226Z,50.70
2018-07-27T15:39:41.498Z,50.90
2018-07-27T15:42:09.677Z,48.30
2018-07-27T15:44:37.927Z,50.50
2018-07-27T15:47:06.177Z,50.80
2018-07-27T15:49:34.334Z,51.20
2018-07-27T15:52:02.998Z,51.50
2018-07-27T15:54:31.103Z,51.90
2018-07-27T15:56:59.570Z,52.30
2018-07-27T15:59:27.707Z,52.90
2018-07-27T16:01:55.827Z,53.00
2018-07-27T16:04:23.935Z,53.30
2018-07-27T16:06:52.065Z,53.20
2018-07-27T16:09:20.203Z,52.90
2018-07-27T16:11:48.351Z,53.20
2018-07-27T16:14:16.490Z,53.80
2018-07-27T16:16:44.624Z,54.20
2018-07-27T16:19:12.767Z,54.20
2018-07-27T16:21:40.922Z,54.40
2018-07-27T16:24:09.045Z,54.40
2018-07-27T16:26:37.176Z,55.00
2018-07-27T16:29:05.337Z,55.30
2018-07-27T16:31:33.499Z,55.80
2018-07-27T16:34:01.641Z,55.50
2018-07-27T16:36:29.826Z,55.70
2018-07-27T16:38:57.997Z,56.10
2018-07-27T16:41:26.121Z,56.20
2018-07-27T16:43:54.285Z,56.40
2018-07-27T16:46:22.491Z,56.80
2018-07-27T16:48:50.634Z,57.20
2018-07-27T16:51:18.764Z,56.80
2018-07-27T16:53:46.881Z,57.00
2018-07-27T16:56:15.009Z,57.40
2018-07-27T16:58:43.220Z,55.80
2018-07-27T17:01:11.340Z,54.90
2018-07-27T17:03:39.465Z,55.30
2018-07-27T17:06:07.609Z,55.20
2018-07-27T17:08:35.698Z,55.40
2018-07-27T17:11:03.837Z,55.40
2018-07-27T17:13:31.985Z,55.90
2018-07-27T17:16:00.133Z,55.80
2018-07-27T17:18:28.374Z,56.10
2018-07-27T17:20:56.475Z,56.80
2018-07-27T17:23:24.623Z,56.90
2018-07-27T17:25:52.792Z,56.90
2018-07-27T17:28:21.105Z,57.20
2018-07-27T17:30:49.268Z,57.50
2018-07-27T17:33:17.417Z,58.20
2018-07-27T17:35:45.554Z,58.20
2018-07-27T17:38:13.685Z,57.70
2018-07-27T17:40:41.877Z,58.00
2018-07-27T17:43:10.046Z,58.30
2018-07-27T17:45:38.125Z,58.50
2018-07-27T17:48:06.307Z,58.80
2018-07-27T17:50:34.523Z,58.90
2018-07-27T17:53:02.699Z,58.90
2018-07-27T17:55:30.899Z,59.50
2018-07-27T17:57:59.240Z,60.40
2018-07-27T18:00:27.451Z,61.50
2018-07-27T18:02:55.830Z,62.30
2018-07-27T18:05:25.126Z,62.90
2018-07-27T18:07:53.364Z,63.00
2018-07-27T18:10:21.479Z,63.70
2018-07-27T18:12:49.643Z,64.00
2018-07-27T18:15:17.790Z,64.30
2018-07-27T18:17:45.945Z,65.20
2018-07-27T18:20:14.194Z,65.60
2018-07-27T18:22:42.363Z,65.50
2018-07-27T18:25:13.799Z,64.80
2018-07-27T18:27:41.934Z,65.30
2018-07-27T18:30:11.762Z,66.30
2018-07-27T18:32:40.034Z,67.40
2018-07-27T18:35:08.905Z,67.70
2018-07-27T18:37:37.430Z,68.40
2018-07-27T18:40:05.773Z,68.90
2018-07-27T18:42:33.932Z,70.20
2018-07-27T18:45:02.159Z,70.20
2018-07-27T18:47:30.309Z,69.60
2018-07-27T18:49:58.520Z,70.40
2018-07-27T18:52:26.705Z,70.10
2018-07-27T18:54:55.311Z,71.20
2018-07-27T18:57:23.669Z,71.20
2018-07-27T18:59:51.935Z,71.70
2018-07-27T19:02:20.109Z,72.60
2018-07-27T19:04:48.284Z,73.30
2018-07-27T19:07:16.454Z,73.40
2018-07-27T19:09:44.617Z,73.50
2018-07-27T19:12:12.771Z,74.10
2018-07-27T19:14:40.953Z,74.30
2018-07-27T19:17:09.117Z,74.80
2018-07-27T19:19:37.311Z,75.70
2018-07-27T19:22:05.474Z,76.00
2018-07-27T19:24:33.655Z,76.60
2018-07-27T19:27:01.777Z,75.80
2018-07-27T19:29:29.917Z,77.00
2018-07-27T19:31:58.092Z,77.40
2018-07-27T19:34:26.246Z,79.10
2018-07-27T19:36:54.446Z,77.80
2018-07-27T19:39:22.703Z,78.30
2018-07-27T19:41:50.860Z,78.00
2018-07-27T19:44:19.071Z,77.90
2018-07-27T19:49:21.998Z,79.20
2018-07-27T19:51:50.169Z,79.20
2018-07-27T19:54:18.341Z,79.70
2018-07-27T19:56:46.493Z,80.70
2018-07-27T19:59:14.637Z,81.70
2018-07-27T20:01:42.761Z,81.80
2018-07-27T20:04:10.906Z,82.00
2018-07-27T20:06:39.294Z,82.10
2018-07-27T20:09:08.474Z,82.50
2018-07-27T20:11:36.585Z,83.60
2018-07-27T20:14:04.757Z,83.50
2018-07-27T20:16:32.864Z,83.60
2018-07-27T20:19:00.975Z,83.70
2018-07-27T20:21:29.143Z,84.40
2018-07-27T20:23:57.302Z,85.00
2018-07-27T20:26:25.423Z,85.40
2018-07-27T20:28:53.541Z,85.40
2018-07-27T20:31:21.686Z,85.60
2018-07-27T20:33:49.830Z,85.90
2018-07-27T20:36:17.961Z,86.70
2018-07-27T20:38:46.078Z,87.10
2018-07-27T20:41:14.203Z,87.30
2018-07-27T20:43:42.323Z,87.20
2018-07-27T20:46:10.545Z,88.60
2018-07-27T20:48:38.696Z,88.90
2018-07-27T20:51:06.790Z,88.60
2018-07-27T20:53:34.917Z,88.50
2018-07-27T20:56:03.037Z,89.60
2018-07-27T20:58:31.169Z,89.20
2018-07-27T21:00:59.296Z,90.10
2018-07-27T21:03:27.447Z,90.50
2018-07-27T21:05:55.569Z,90.60
2018-07-27T21:08:23.720Z,90.70
2018-07-27T21:10:51.845Z,90.80
2018-07-27T21:13:19.967Z,90.80
2018-07-27T21:15:48.102Z,90.90
2018-07-27T21:18:16.211Z,91.00
2018-07-27T21:20:44.310Z,91.30
2018-07-27T21:23:12.401Z,92.00
2018-07-27T21:25:40.526Z,92.30
2018-07-27T21:28:08.645Z,92.30
2018-07-27T21:30:36.763Z,92.10
2018-07-27T21:33:04.877Z,92.40
2018-07-27T21:35:32.972Z,92.60
2018-07-27T21:38:01.131Z,92.80
2018-07-27T21:40:29.228Z,93.00
2018-07-27T21:42:57.442Z,93.30
2018-07-27T21:45:25.567Z,93.80
2018-07-27T21:47:53.686Z,94.10
2018-07-27T21:50:21.898Z,94.40
2018-07-27T21:52:50.038Z,94.00
2018-07-27T21:55:18.249Z,94.10
2018-07-27T21:57:46.419Z,94.10
2018-07-27T22:00:14.638Z,94.10
2018-07-27T22:02:42.752Z,94.60
2018-07-27T22:05:10.869Z,94.60
2018-07-27T22:07:38.981Z,94.40
2018-07-27T22:10:07.094Z,94.40
2018-07-27T22:12:35.203Z,94.40
2018-07-27T22:15:03.328Z,94.50
2018-07-27T22:17:31.485Z,94.90
2018-07-27T22:19:59.618Z,95.50
2018-07-27T22:22:27.762Z,95.60
2018-07-27T22:24:55.898Z,95.70
2018-07-27T22:27:24.051Z,95.80
2018-07-27T22:29:52.166Z,95.90
2018-07-27T22:32:20.348Z,96.00
2018-07-27T22:34:48.434Z,96.00
2018-07-27T22:37:16.555Z,96.20
2018-07-27T22:39:44.673Z,96.50
2018-07-27T22:42:12.769Z,96.60
2018-07-27T22:44:40.908Z,96.70
2018-07-27T22:47:09.009Z,96.90
2018-07-27T22:49:37.140Z,97.10
2018-07-27T22:52:05.266Z,97.70
2018-07-27T22:54:33.408Z,97.80
2018-07-27T22:57:01.521Z,97.60
2018-07-27T22:59:29.654Z,97.90
2018-07-27T23:01:57.818Z,97.90
2018-07-27T23:04:25.939Z,97.70
2018-07-27T23:06:54.053Z,97.90
2018-07-27T23:09:22.238Z,98.30
2018-07-27T23:11:50.385Z,98.60
2018-07-27T23:14:18.479Z,99.10
2018-07-27T23:16:46.598Z,99.00
2018-07-27T23:19:14.716Z,99.40
2018-07-27T23:21:42.824Z,99.40
2018-07-27T23:24:10.945Z,99.60
2018-07-27T23:26:39.049Z,99.40
2018-07-27T23:29:07.163Z,99.50
2018-07-27T23:31:35.305Z,99.90
2018-07-27T23:34:03.405Z,99.90
2018-07-27T23:36:31.528Z,99.90
2018-07-27T23:38:59.638Z,99.90
2018-07-27T23:41:27.741Z,99.90
2018-07-27T23:43:55.860Z,99.90
2018-07-27T23:46:24.013Z,99.90
2018-07-27T23:48:52.125Z,99.90
2018-07-27T23:51:20.257Z,99.90
2018-07-27T23:53:48.387Z,99.90
2018-07-27T23:56:16.485Z,99.90
2018-07-27T23:58:44.636Z,99.90
